createdAt,value
2022-11-19T00:00:25.280Z,12.12
2022-11-19T00:01:27.638Z,12.89
2022-11-19T00:02:30.083Z,12.62
2022-11-19T00:03:32.621Z,11.47
2022-11-19T00:04:34.983Z,12.29
2022-11-19T00:05:37.484Z,13.61
2022-11-19T00:06:40.039Z,12.43
2022-11-19T00:07:42.443Z,13.59
2022-11-19T00:08:44.894Z,11.63
2022-11-19T00:09:47.247Z,12.65
2022-11-19T00:10:49.849Z,17.36
2022-11-19T00:11:52.299Z,13.08
2022-11-19T00:12:54.718Z,13.45
2022-11-19T00:13:57.100Z,13.63
2022-11-19T00:14:59.458Z,14.73
2022-11-19T00:16:01.929Z,13.81
2022-11-19T00:17:04.291Z,12.79
2022-11-19T00:18:06.691Z,13.59
2022-11-19T00:19:09.055Z,13.20
2022-11-19T00:20:13.220Z,15.72
2022-11-19T00:21:15.631Z,15.59
2022-11-19T00:22:18.187Z,14.38
2022-11-19T00:23:20.580Z,14.06
2022-11-19T00:24:22.952Z,15.49
2022-11-19T00:25:25.328Z,14.76
2022-11-19T00:26:27.987Z,13.80
2022-11-19T00:27:30.446Z,13.40
2022-11-19T00:28:32.843Z,16.45
2022-11-19T00:29:35.195Z,14.49
2022-11-19T00:30:53.204Z,15.45
2022-11-19T00:31:42.025Z,17.61
2022-11-19T00:32:44.383Z,14.47
2022-11-19T00:33:46.821Z,16.11
2022-11-19T00:34:49.251Z,12.55
2022-11-19T00:35:51.656Z,12.57
2022-11-19T00:36:54.077Z,12.83
2022-11-19T00:37:56.451Z,17.41
2022-11-19T00:38:58.921Z,16.69
2022-11-19T00:40:01.434Z,15.51
2022-11-19T00:41:03.847Z,15.99
2022-11-19T00:42:06.200Z,14.97
2022-11-19T00:43:08.560Z,15.19
2022-11-19T00:44:10.942Z,16.38
2022-11-19T00:45:13.299Z,15.30
2022-11-19T00:46:15.951Z,15.40
2022-11-19T00:47:18.365Z,19.89
2022-11-19T00:48:20.830Z,17.14
2022-11-19T00:49:23.486Z,16.66
2022-11-19T00:50:26.008Z,15.13
2022-11-19T00:51:28.479Z,16.61
2022-11-19T00:52:30.941Z,15.85
2022-11-19T00:53:33.405Z,15.43
2022-11-19T00:54:35.911Z,19.52
2022-11-19T00:55:38.336Z,17.23
2022-11-19T00:56:40.804Z,15.42
2022-11-19T00:57:43.284Z,15.05
2022-11-19T00:58:45.636Z,16.74
2022-11-19T00:59:48.130Z,17.94
2022-11-19T01:00:50.929Z,15.72
2022-11-19T01:01:53.345Z,15.50
2022-11-19T01:02:55.697Z,16.79
2022-11-19T01:03:58.061Z,17.02
2022-11-19T01:05:00.451Z,15.47
2022-11-19T01:06:02.938Z,15.91
2022-11-19T01:07:05.431Z,13.59
2022-11-19T01:08:07.984Z,17.12
2022-11-19T01:09:10.336Z,16.89
2022-11-19T01:10:13.668Z,15.99
2022-11-19T01:11:16.114Z,15.99
2022-11-19T01:12:18.579Z,18.43
2022-11-19T01:13:21.048Z,17.96
2022-11-19T01:14:23.411Z,15.87
2022-11-19T01:15:25.839Z,19.54
2022-11-19T01:16:28.441Z,17.87
2022-11-19T01:17:30.797Z,18.26
2022-11-19T01:18:33.160Z,18.99
2022-11-19T01:19:35.608Z,18.13
2022-11-19T01:20:38.245Z,18.50
2022-11-19T01:21:40.860Z,15.13
2022-11-19T01:22:43.307Z,15.60
2022-11-19T01:23:45.661Z,19.69
2022-11-19T01:24:48.114Z,20.25
2022-11-19T01:25:50.597Z,17.83
2022-11-19T01:26:53.249Z,15.09
2022-11-19T01:27:55.602Z,21.15
2022-11-19T01:28:58.057Z,18.65
2022-11-19T01:30:00.546Z,20.03
2022-11-19T01:31:02.992Z,16.65
2022-11-19T01:32:05.450Z,21.79
2022-11-19T01:33:07.915Z,24.07
2022-11-19T01:34:10.397Z,18.05
2022-11-19T01:35:12.744Z,19.09
2022-11-19T01:36:15.131Z,20.34
2022-11-19T01:37:17.492Z,21.36
2022-11-19T01:38:19.865Z,18.03
2022-11-19T01:39:22.379Z,19.59
2022-11-19T01:40:25.168Z,22.41
2022-11-19T01:41:27.558Z,21.51
2022-11-19T01:42:29.913Z,22.02
2022-11-19T01:43:32.260Z,19.51
2022-11-19T01:44:34.635Z,19.97
2022-11-19T01:45:37.077Z,20.74
2022-11-19T01:46:39.677Z,19.44
2022-11-19T01:47:42.140Z,23.46
2022-11-19T01:48:44.491Z,20.27
2022-11-19T01:49:46.842Z,21.21
2022-11-19T01:50:49.415Z,24.26
2022-11-19T01:51:52.272Z,20.27
2022-11-19T01:52:54.718Z,21.91
2022-11-19T01:53:57.196Z,21.95
2022-11-19T01:54:59.724Z,23.11
2022-11-19T01:56:02.517Z,17.41
2022-11-19T01:57:05.053Z,22.48
2022-11-19T01:58:07.508Z,23.23
2022-11-19T01:59:09.950Z,21.61
2022-11-19T02:00:14.143Z,23.06
2022-11-19T02:01:16.651Z,23.22
2022-11-19T02:02:19.123Z,22.53
2022-11-19T02:03:21.480Z,22.82
2022-11-19T02:04:23.839Z,22.49
2022-11-19T02:05:26.291Z,20.95
2022-11-19T02:06:28.875Z,22.83
2022-11-19T02:07:31.572Z,20.70
2022-11-19T02:08:34.018Z,22.53
2022-11-19T02:09:36.381Z,20.59
2022-11-19T02:10:38.938Z,22.11
2022-11-19T02:11:41.293Z,21.33
2022-11-19T02:12:43.827Z,22.01
2022-11-19T02:13:46.274Z,22.13
2022-11-19T02:14:53.468Z,22.27
2022-11-19T02:15:52.897Z,21.62
2022-11-19T02:16:55.553Z,20.49
2022-11-19T02:17:57.942Z,22.21
2022-11-19T02:19:00.394Z,24.11
2022-11-19T02:20:02.973Z,24.79
2022-11-19T02:21:05.323Z,19.28
2022-11-19T02:22:07.675Z,21.07
2022-11-19T02:23:10.150Z,22.45
2022-11-19T02:24:12.505Z,23.48
2022-11-19T02:25:14.892Z,21.87
2022-11-19T02:26:17.743Z,19.82
2022-11-19T02:27:20.096Z,17.72
2022-11-19T02:28:22.516Z,20.48
2022-11-19T02:29:24.937Z,20.55
2022-11-19T02:30:27.486Z,21.33
2022-11-19T02:31:29.948Z,18.64
2022-11-19T02:32:32.398Z,21.34
2022-11-19T02:33:34.788Z,24.27
2022-11-19T02:34:37.150Z,18.05
2022-11-19T02:35:39.511Z,20.11
2022-11-19T02:36:42.262Z,21.21
2022-11-19T02:37:44.613Z,18.18
2022-11-19T02:38:47.004Z,17.57
2022-11-19T02:39:49.460Z,17.15
2022-11-19T02:40:52.015Z,18.55
2022-11-19T02:41:54.397Z,22.07
2022-11-19T02:42:56.754Z,22.61
2022-11-19T02:43:59.228Z,20.27
2022-11-19T02:45:01.633Z,22.19
2022-11-19T02:46:04.195Z,29.48
2022-11-19T02:47:06.559Z,25.12
2022-11-19T02:48:09.007Z,22.07
2022-11-19T02:49:11.492Z,31.15
2022-11-19T02:50:14.155Z,28.34
2022-11-19T02:51:16.561Z,29.23
2022-11-19T02:52:18.944Z,31.81
2022-11-19T02:53:21.303Z,22.25
2022-11-19T02:54:23.716Z,21.06
2022-11-19T02:55:26.069Z,22.03
2022-11-19T02:56:28.635Z,19.50
2022-11-19T02:57:31.096Z,22.39
2022-11-19T02:58:33.690Z,20.25
2022-11-19T02:59:36.230Z,24.79
2022-11-19T03:00:39.006Z,22.80
2022-11-19T03:01:41.580Z,21.27
2022-11-19T03:02:44.401Z,16.51
2022-11-19T03:03:46.847Z,20.97
2022-11-19T03:04:49.241Z,19.02
2022-11-19T03:05:51.698Z,21.43
2022-11-19T03:06:54.550Z,18.24
2022-11-19T03:07:57.182Z,20.28
2022-11-19T03:08:59.536Z,21.60
2022-11-19T03:10:01.967Z,21.59
2022-11-19T03:11:04.325Z,18.92
2022-11-19T03:12:06.839Z,23.39
2022-11-19T03:13:09.242Z,24.52
2022-11-19T03:14:11.760Z,18.33
2022-11-19T03:15:14.440Z,19.58
2022-11-19T03:16:16.891Z,19.63
2022-11-19T03:17:19.362Z,19.27
2022-11-19T03:18:21.719Z,20.93
2022-11-19T03:19:24.074Z,16.37
2022-11-19T03:20:26.662Z,21.09
2022-11-19T03:21:29.348Z,17.41
2022-11-19T03:22:31.783Z,20.98
2022-11-19T03:23:34.136Z,17.13
2022-11-19T03:24:36.523Z,22.14
2022-11-19T03:25:38.962Z,16.49
2022-11-19T03:26:41.437Z,16.83
2022-11-19T03:27:43.892Z,19.53
2022-11-19T03:28:46.249Z,18.41
2022-11-19T03:29:48.698Z,19.13
2022-11-19T03:30:51.285Z,18.39
2022-11-19T03:31:53.780Z,18.29
2022-11-19T03:32:56.136Z,19.23
2022-11-19T03:33:58.498Z,19.75
2022-11-19T03:35:00.949Z,16.02
2022-11-19T03:36:03.736Z,18.48
2022-11-19T03:37:06.188Z,14.23
2022-11-19T03:38:08.545Z,16.55
2022-11-19T03:39:10.904Z,15.82
2022-11-19T03:40:13.668Z,14.63
2022-11-19T03:41:16.052Z,16.30
2022-11-19T03:42:18.408Z,18.35
2022-11-19T03:43:20.810Z,15.04
2022-11-19T03:44:23.684Z,18.62
2022-11-19T03:45:26.172Z,17.56
2022-11-19T03:46:28.916Z,18.69
2022-11-19T03:47:31.399Z,18.49
2022-11-19T03:48:33.757Z,16.43
2022-11-19T03:49:36.214Z,19.82
2022-11-19T03:50:38.879Z,16.33
2022-11-19T03:51:41.377Z,15.43
2022-11-19T03:52:44.114Z,16.59
2022-11-19T03:53:46.565Z,15.84
2022-11-19T03:54:48.973Z,14.85
2022-11-19T03:55:51.328Z,17.45
2022-11-19T03:56:54.126Z,13.43
2022-11-19T03:57:56.501Z,16.41
2022-11-19T03:58:59.116Z,16.41
2022-11-19T04:00:01.571Z,15.60
2022-11-19T04:01:04.020Z,14.91
2022-11-19T04:02:06.639Z,13.60
2022-11-19T04:03:09.415Z,16.01
2022-11-19T04:04:11.872Z,15.37
2022-11-19T04:05:14.325Z,14.19
2022-11-19T04:06:17.087Z,13.14
2022-11-19T04:07:19.604Z,13.21
2022-11-19T04:08:22.027Z,14.58
2022-11-19T04:09:24.386Z,14.97
2022-11-19T04:10:26.839Z,14.75
2022-11-19T04:11:29.201Z,17.87
2022-11-19T04:12:31.581Z,15.09
2022-11-19T04:13:33.955Z,15.91
2022-11-19T04:14:36.446Z,15.55
2022-11-19T04:15:38.840Z,15.68
2022-11-19T04:16:41.604Z,12.79
2022-11-19T04:17:44.090Z,14.14
2022-11-19T04:18:46.450Z,15.58
2022-11-19T04:19:48.919Z,16.17
2022-11-19T04:20:51.675Z,14.29
2022-11-19T04:21:54.145Z,15.93
2022-11-19T04:22:56.661Z,12.98
2022-11-19T04:23:59.131Z,14.89
2022-11-19T04:25:01.575Z,16.49
2022-11-19T04:26:04.132Z,15.49
2022-11-19T04:27:06.587Z,16.05
2022-11-19T04:28:08.968Z,15.12
2022-11-19T04:29:11.468Z,16.21
2022-11-19T04:30:14.799Z,14.86
2022-11-19T04:31:18.151Z,12.99
2022-11-19T04:32:20.727Z,14.05
2022-11-19T04:33:23.122Z,15.45
2022-11-19T04:34:25.707Z,15.46
2022-11-19T04:35:28.172Z,12.96
2022-11-19T04:36:30.763Z,12.94
2022-11-19T04:37:33.216Z,16.11
2022-11-19T04:38:35.766Z,13.90
2022-11-19T04:39:38.123Z,16.05
2022-11-19T04:40:40.673Z,17.63
2022-11-19T04:41:43.028Z,17.63
2022-11-19T04:42:45.525Z,14.54
2022-11-19T04:43:47.947Z,14.31
2022-11-19T04:44:50.440Z,16.77
2022-11-19T04:45:52.792Z,16.73
2022-11-19T04:46:55.347Z,15.19
2022-11-19T04:47:57.703Z,20.91
2022-11-19T04:49:00.089Z,19.53
2022-11-19T04:50:02.736Z,16.13
2022-11-19T04:51:05.096Z,16.01
2022-11-19T04:52:07.556Z,14.58
2022-11-19T04:53:10.065Z,18.71
2022-11-19T04:54:12.549Z,18.45
2022-11-19T04:55:15.004Z,13.69
2022-11-19T04:56:17.514Z,17.56
2022-11-19T04:57:19.949Z,19.12
2022-11-19T04:58:22.389Z,19.64
2022-11-19T04:59:24.807Z,15.79
2022-11-19T05:00:27.582Z,15.93
2022-11-19T05:01:30.115Z,20.09
2022-11-19T05:02:32.635Z,20.01
2022-11-19T05:03:35.111Z,18.89
2022-11-19T05:04:37.589Z,19.84
2022-11-19T05:05:40.059Z,17.76
2022-11-19T05:06:42.633Z,15.58
2022-11-19T05:07:45.081Z,15.70
2022-11-19T05:08:47.543Z,15.57
2022-11-19T05:09:50.026Z,14.61
2022-11-19T05:10:52.427Z,15.61
2022-11-19T05:11:54.880Z,15.91
2022-11-19T05:12:57.286Z,15.98
2022-11-19T05:14:00.848Z,19.15
2022-11-19T05:15:03.266Z,12.56
2022-11-19T05:16:05.726Z,16.71
2022-11-19T05:17:08.081Z,15.63
2022-11-19T05:18:10.556Z,15.53
2022-11-19T05:19:13.017Z,14.62
2022-11-19T05:20:15.498Z,14.79
2022-11-19T05:21:17.851Z,17.24
2022-11-19T05:22:20.308Z,18.33
2022-11-19T05:23:22.687Z,15.03
2022-11-19T05:24:25.071Z,14.98
2022-11-19T05:25:27.575Z,13.70
2022-11-19T05:26:30.040Z,13.80
2022-11-19T05:27:32.399Z,16.03
2022-11-19T05:28:38.973Z,17.91
2022-11-19T05:29:39.040Z,15.54
2022-11-19T05:30:41.677Z,15.66
2022-11-19T05:31:44.374Z,12.17
2022-11-19T05:32:46.728Z,12.69
2022-11-19T05:33:49.090Z,14.81
2022-11-19T05:34:51.552Z,14.58
2022-11-19T05:35:53.956Z,14.32
2022-11-19T05:36:56.409Z,14.17
2022-11-19T05:37:58.876Z,14.17
2022-11-19T05:39:01.349Z,9.50
2022-11-19T05:40:03.814Z,12.37
2022-11-19T05:41:06.342Z,14.00
2022-11-19T05:42:08.696Z,12.61
2022-11-19T05:43:11.144Z,13.43
2022-11-19T05:44:13.498Z,17.61
2022-11-19T05:45:15.849Z,18.61
2022-11-19T05:46:18.547Z,10.92
2022-11-19T05:47:20.899Z,14.63
2022-11-19T05:48:23.302Z,12.50
2022-11-19T05:49:25.662Z,11.44
2022-11-19T05:50:28.328Z,9.89
2022-11-19T05:51:30.819Z,14.01
2022-11-19T05:52:33.175Z,9.21
2022-11-19T05:53:35.559Z,12.53
2022-11-19T05:54:37.964Z,13.56
2022-11-19T05:55:40.409Z,10.63
2022-11-19T05:56:43.124Z,10.73
2022-11-19T05:57:45.585Z,8.35
2022-11-19T05:58:47.936Z,8.81
2022-11-19T05:59:50.404Z,10.05
2022-11-19T06:28:15.728Z,6.68
2022-11-19T06:29:18.523Z,8.07
2022-11-19T06:30:21.740Z,9.12
2022-11-19T06:31:24.117Z,8.79
2022-11-19T06:32:26.604Z,7.71
2022-11-19T06:33:28.987Z,9.59
2022-11-19T06:34:31.435Z,7.77
2022-11-19T06:35:33.881Z,15.65
2022-11-19T06:36:41.836Z,7.70
2022-11-19T06:37:40.934Z,5.49
2022-11-19T06:38:43.429Z,5.31
2022-11-19T06:39:45.892Z,7.52
2022-11-19T06:40:48.459Z,6.06
2022-11-19T06:41:50.826Z,10.27
2022-11-19T06:42:53.189Z,6.14
2022-11-19T06:43:55.599Z,5.45
2022-11-19T06:44:57.957Z,8.15
2022-11-19T06:46:00.311Z,7.33
2022-11-19T06:47:02.665Z,8.47
2022-11-19T06:48:05.115Z,8.77
2022-11-19T06:49:07.886Z,9.27
2022-11-19T06:50:11.840Z,7.33
2022-11-19T06:51:14.283Z,6.12
2022-11-19T06:52:16.663Z,6.73
2022-11-19T06:53:19.020Z,7.62
2022-11-19T06:54:21.509Z,6.30
2022-11-19T06:55:23.858Z,8.11
2022-11-19T06:56:26.766Z,9.93
2022-11-19T06:57:29.291Z,14.17
2022-11-19T06:58:31.749Z,9.69
2022-11-19T06:59:34.139Z,9.18
2022-11-19T07:00:36.703Z,7.82
2022-11-19T07:01:39.278Z,9.05
2022-11-19T07:02:41.710Z,7.46
2022-11-19T07:03:44.074Z,9.31
2022-11-19T07:04:46.473Z,7.49
2022-11-19T07:05:48.852Z,7.56
2022-11-19T07:06:51.738Z,6.06
2022-11-19T07:07:56.715Z,7.89
2022-11-19T07:08:58.389Z,5.74
2022-11-19T07:10:00.859Z,9.50
2022-11-19T07:11:03.337Z,5.82
2022-11-19T07:12:05.783Z,4.89
2022-11-19T07:13:08.129Z,6.13
2022-11-19T07:14:10.531Z,5.83
2022-11-19T07:15:12.973Z,5.74
2022-11-19T07:16:15.458Z,4.83
2022-11-19T07:17:17.812Z,5.44
2022-11-19T07:18:20.177Z,7.27
2022-11-19T07:19:22.742Z,5.31
2022-11-19T07:20:25.923Z,3.64
2022-11-19T07:21:28.277Z,4.03
2022-11-19T07:22:30.725Z,4.10
2022-11-19T07:23:33.074Z,3.62
2022-11-19T07:24:35.430Z,4.23
2022-11-19T07:25:37.817Z,3.45
2022-11-19T07:26:40.570Z,5.32
2022-11-19T07:27:42.926Z,4.12
2022-11-19T07:28:45.284Z,4.28
2022-11-19T07:29:47.646Z,3.56
2022-11-19T07:30:50.538Z,3.63
2022-11-19T07:31:52.890Z,3.81
2022-11-19T07:32:55.251Z,4.51
2022-11-19T07:33:57.691Z,4.58
2022-11-19T07:35:00.049Z,7.21
2022-11-19T07:36:02.528Z,4.38
2022-11-19T07:37:04.881Z,3.87
2022-11-19T07:38:07.228Z,4.34
2022-11-19T07:39:09.631Z,5.73
2022-11-19T07:40:12.589Z,6.56
2022-11-19T07:41:14.974Z,5.67
2022-11-19T07:42:17.327Z,4.09
2022-11-19T07:43:19.693Z,4.60
2022-11-19T07:44:22.139Z,5.71
2022-11-19T07:45:24.506Z,3.74
2022-11-19T07:46:27.087Z,4.64
2022-11-19T07:47:29.467Z,5.90
2022-11-19T07:48:31.910Z,4.50
2022-11-19T07:49:34.275Z,4.91
2022-11-19T07:50:37.072Z,5.03
2022-11-19T07:51:39.467Z,5.62
2022-11-19T07:52:41.923Z,4.23
2022-11-19T07:53:44.279Z,4.85
2022-11-19T07:54:46.734Z,3.60
2022-11-19T07:55:49.115Z,4.25
2022-11-19T07:56:51.906Z,3.61
2022-11-19T07:57:54.360Z,4.31
2022-11-19T07:58:56.709Z,4.71
2022-11-19T07:59:59.061Z,5.95
2022-11-19T08:01:01.607Z,5.04
2022-11-19T08:02:04.353Z,5.08
2022-11-19T08:03:06.974Z,3.90
2022-11-19T08:04:09.425Z,4.60
2022-11-19T08:05:11.922Z,3.96
2022-11-19T08:06:14.658Z,6.69
2022-11-19T08:07:17.147Z,5.09
2022-11-19T08:08:19.702Z,4.72
2022-11-19T08:09:22.488Z,4.28
2022-11-19T08:10:30.412Z,4.78
2022-11-19T08:11:29.315Z,3.98
2022-11-19T08:12:31.789Z,6.61
2022-11-19T08:13:34.256Z,8.83
2022-11-19T08:14:36.705Z,4.88
2022-11-19T08:15:39.095Z,4.40
2022-11-19T08:16:41.656Z,5.07
2022-11-19T08:17:44.283Z,7.21
2022-11-19T08:18:46.635Z,4.67
2022-11-19T08:19:48.985Z,5.37
2022-11-19T08:20:51.746Z,4.90
2022-11-19T08:21:54.100Z,6.35
2022-11-19T08:22:56.486Z,4.97
2022-11-19T08:23:59.150Z,4.04
2022-11-19T08:25:01.595Z,3.81
2022-11-19T08:26:04.159Z,4.89
2022-11-19T08:27:06.644Z,5.41
2022-11-19T08:28:09.088Z,7.92
2022-11-19T08:29:15.910Z,5.51
2022-11-19T08:30:16.124Z,4.97
2022-11-19T08:31:18.474Z,4.89
2022-11-19T08:32:20.829Z,5.31
2022-11-19T08:33:23.315Z,4.34
2022-11-19T08:34:25.765Z,3.41
2022-11-19T08:35:28.121Z,4.35
2022-11-19T08:36:30.591Z,5.75
2022-11-19T08:37:32.954Z,4.20
2022-11-19T08:38:38.578Z,3.85
2022-11-19T08:39:39.761Z,3.99
2022-11-19T08:40:42.220Z,7.23
2022-11-19T08:41:44.576Z,6.60
2022-11-19T08:42:46.927Z,7.37
2022-11-19T08:43:49.440Z,7.26
2022-11-19T08:44:51.896Z,4.37
2022-11-19T08:45:54.270Z,4.45
2022-11-19T08:46:56.925Z,4.39
2022-11-19T08:47:59.375Z,3.56
2022-11-19T08:49:01.977Z,4.39
2022-11-19T08:50:04.643Z,5.67
2022-11-19T08:51:07.110Z,5.75
2022-11-19T08:52:09.475Z,6.42
2022-11-19T08:53:12.058Z,4.81
2022-11-19T08:54:14.554Z,6.01
2022-11-19T08:55:16.910Z,4.37
2022-11-19T08:56:19.363Z,4.67
2022-11-19T08:57:21.746Z,3.44
2022-11-19T08:58:24.189Z,4.47
2022-11-19T08:59:26.667Z,4.38
2022-11-19T09:00:29.293Z,3.38
2022-11-19T09:01:31.879Z,4.66
2022-11-19T09:02:34.243Z,4.81
2022-11-19T09:03:36.890Z,4.53
2022-11-19T09:04:39.295Z,4.71
2022-11-19T09:05:41.650Z,5.59
2022-11-19T09:06:44.591Z,7.86
2022-11-19T09:07:46.978Z,7.55
2022-11-19T09:08:49.333Z,6.11
2022-11-19T09:09:51.720Z,6.76
2022-11-19T09:10:54.277Z,13.47
2022-11-19T09:11:56.738Z,9.98
2022-11-19T09:12:59.190Z,4.65
2022-11-19T09:14:01.539Z,5.81
2022-11-19T09:15:04.060Z,7.17
2022-11-19T09:16:06.717Z,4.97
2022-11-19T09:17:09.069Z,5.49
2022-11-19T09:18:11.421Z,5.13
2022-11-19T09:19:13.785Z,7.01
2022-11-19T09:20:16.620Z,5.53
2022-11-19T09:21:18.981Z,6.26
2022-11-19T09:22:21.389Z,2.85
2022-11-19T09:23:23.831Z,4.01
2022-11-19T09:24:26.279Z,3.45
2022-11-19T09:25:28.680Z,3.91
2022-11-19T09:26:31.359Z,3.06
2022-11-19T09:27:33.816Z,5.77
2022-11-19T09:28:36.279Z,4.65
2022-11-19T09:29:38.749Z,3.72
2022-11-19T09:30:41.519Z,4.30
2022-11-19T09:31:43.938Z,3.93
2022-11-19T09:32:46.290Z,2.48
2022-11-19T09:33:48.691Z,3.74
2022-11-19T09:34:51.203Z,7.23
2022-11-19T09:35:53.715Z,2.41
2022-11-19T09:36:56.514Z,4.47
2022-11-19T09:37:58.972Z,5.26
2022-11-19T09:39:01.334Z,5.46
2022-11-19T09:40:03.798Z,3.90
2022-11-19T09:41:06.210Z,6.79
2022-11-19T09:42:08.582Z,5.62
2022-11-19T09:43:15.197Z,3.91
2022-11-19T09:44:15.298Z,5.29
2022-11-19T09:45:17.666Z,2.96
2022-11-19T09:46:20.340Z,6.86
2022-11-19T09:47:22.728Z,5.63
2022-11-19T09:48:25.186Z,4.71
2022-11-19T09:49:27.563Z,5.63
2022-11-19T09:50:30.215Z,5.51
2022-11-19T09:51:32.707Z,6.27
2022-11-19T09:52:35.190Z,6.41
2022-11-19T09:53:37.559Z,4.99
2022-11-19T09:54:39.970Z,2.90
2022-11-19T09:55:42.441Z,3.55
2022-11-19T09:56:45.047Z,2.97
2022-11-19T09:57:47.490Z,4.63
2022-11-19T09:58:49.940Z,4.55
2022-11-19T09:59:52.439Z,3.60
2022-11-19T10:00:55.074Z,2.99
2022-11-19T10:01:57.858Z,4.79
2022-11-19T10:03:00.224Z,6.33
2022-11-19T10:04:02.670Z,4.61
2022-11-19T10:05:05.034Z,4.39
2022-11-19T10:06:08.086Z,4.04
2022-11-19T10:07:10.932Z,6.29
2022-11-19T10:08:13.385Z,8.23
2022-11-19T10:09:15.846Z,8.37
2022-11-19T10:10:18.527Z,8.45
2022-11-19T10:11:20.907Z,8.20
2022-11-19T10:12:23.412Z,4.09
2022-11-19T10:13:25.833Z,1.87
2022-11-19T10:14:28.292Z,3.05
2022-11-19T10:15:36.024Z,7.09
2022-11-19T10:16:35.112Z,3.62
2022-11-19T10:17:37.506Z,4.81
2022-11-19T10:18:39.868Z,3.83
2022-11-19T10:19:42.233Z,4.65
2022-11-19T10:20:44.907Z,5.19
2022-11-19T10:21:47.267Z,5.41
2022-11-19T10:22:54.215Z,3.19
2022-11-19T10:23:53.945Z,2.46
2022-11-19T10:24:56.404Z,3.99
2022-11-19T10:25:58.764Z,2.20
2022-11-19T10:27:07.240Z,3.25
2022-11-19T10:28:05.766Z,4.58
2022-11-19T10:29:08.119Z,6.27
2022-11-19T10:30:11.693Z,4.83
2022-11-19T10:31:14.072Z,6.70
2022-11-19T10:32:16.527Z,10.58
2022-11-19T10:33:18.917Z,9.26
2022-11-19T10:34:21.281Z,5.39
2022-11-19T10:35:23.729Z,6.15
2022-11-19T10:36:26.429Z,6.18
2022-11-19T10:37:28.787Z,5.79
2022-11-19T10:38:31.183Z,6.34
2022-11-19T10:39:33.542Z,6.36
2022-11-19T10:40:36.197Z,4.89
2022-11-19T10:41:38.657Z,4.31
2022-11-19T10:42:41.010Z,6.45
2022-11-19T10:43:43.394Z,9.13
2022-11-19T10:44:45.854Z,8.10
2022-11-19T10:45:48.210Z,6.29
2022-11-19T10:46:50.671Z,4.43
2022-11-19T10:47:53.025Z,4.78
2022-11-19T10:48:55.674Z,5.67
2022-11-19T10:49:58.113Z,6.27
2022-11-19T10:51:00.772Z,4.24
2022-11-19T10:52:03.131Z,7.20
2022-11-19T10:53:05.594Z,7.19
2022-11-19T10:54:08.101Z,5.97
2022-11-19T10:55:10.449Z,6.07
2022-11-19T10:56:13.109Z,5.11
2022-11-19T10:57:15.566Z,4.13
2022-11-19T10:58:17.929Z,4.13
2022-11-19T10:59:20.523Z,8.27
2022-11-19T11:00:23.583Z,10.78
2022-11-19T11:01:26.099Z,5.96
2022-11-19T11:02:28.831Z,5.46
2022-11-19T11:03:31.179Z,9.39
2022-11-19T11:04:33.581Z,7.97
2022-11-19T11:05:36.273Z,9.79
2022-11-19T11:06:38.888Z,9.38
2022-11-19T11:07:44.408Z,15.75
2022-11-19T11:08:45.509Z,5.54
2022-11-19T11:09:48.020Z,5.49
2022-11-19T11:10:50.467Z,4.49
2022-11-19T11:11:52.833Z,4.97
2022-11-19T11:12:55.444Z,5.60
2022-11-19T11:13:57.822Z,7.38
2022-11-19T11:15:00.258Z,7.78
2022-11-19T11:16:02.981Z,6.94
2022-11-19T11:17:05.343Z,5.73
2022-11-19T11:18:07.702Z,5.30
2022-11-19T11:19:10.152Z,7.11
2022-11-19T11:20:12.725Z,6.23
2022-11-19T11:21:15.080Z,4.81
2022-11-19T11:22:17.433Z,5.01
2022-11-19T11:23:19.795Z,3.92
2022-11-19T11:24:22.275Z,4.44
2022-11-19T11:25:24.671Z,4.75
2022-11-19T11:26:27.218Z,6.37
2022-11-19T11:27:29.599Z,6.93
2022-11-19T11:28:31.947Z,5.61
2022-11-19T11:29:34.300Z,7.37
2022-11-19T11:30:36.987Z,5.77
2022-11-19T11:31:39.441Z,5.15
2022-11-19T11:32:41.902Z,4.47
2022-11-19T11:33:44.345Z,4.80
2022-11-19T11:34:46.696Z,4.65
2022-11-19T11:35:49.175Z,4.14
2022-11-19T11:36:51.718Z,4.31
2022-11-19T11:37:54.073Z,5.92
2022-11-19T11:38:56.545Z,4.37
2022-11-19T11:39:58.900Z,3.69
2022-11-19T11:41:41.775Z,5.41
2022-11-19T11:42:06.894Z,5.61
2022-11-19T11:43:09.935Z,3.49
2022-11-19T11:44:12.298Z,4.42
2022-11-19T11:45:14.753Z,3.79
2022-11-19T11:46:17.372Z,5.11
2022-11-19T11:47:19.794Z,5.13
2022-11-19T11:48:22.273Z,5.03
2022-11-19T11:49:24.924Z,4.66
2022-11-19T11:50:27.968Z,3.87
2022-11-19T11:51:30.361Z,4.25
2022-11-19T11:52:32.716Z,5.19
2022-11-19T11:53:35.163Z,6.24
2022-11-19T11:54:37.517Z,5.10
2022-11-19T11:55:39.970Z,4.29
2022-11-19T11:56:42.771Z,4.28
2022-11-19T11:57:45.215Z,5.86
2022-11-19T11:58:47.576Z,5.41
2022-11-19T11:59:49.931Z,5.34
2022-11-19T12:00:52.480Z,6.94
2022-11-19T12:01:54.922Z,4.83
2022-11-19T12:02:57.561Z,4.56
2022-11-19T12:04:00.018Z,5.79
2022-11-19T12:05:02.608Z,4.53
2022-11-19T12:06:05.610Z,4.10
2022-11-19T12:07:08.129Z,4.76
2022-11-19T12:08:10.872Z,4.38
2022-11-19T12:09:13.225Z,3.75
2022-11-19T12:10:16.179Z,3.79
2022-11-19T12:11:18.530Z,4.68
2022-11-19T12:12:20.968Z,6.68
2022-11-19T12:13:23.411Z,4.96
2022-11-19T12:14:25.772Z,4.73
2022-11-19T12:15:28.125Z,4.59
2022-11-19T12:16:30.686Z,8.39
2022-11-19T12:17:33.181Z,4.70
2022-11-19T12:18:35.651Z,5.09
2022-11-19T12:19:38.101Z,6.62
2022-11-19T12:20:40.774Z,6.84
2022-11-19T12:21:43.276Z,5.59
2022-11-19T12:22:45.666Z,5.74
2022-11-19T12:23:48.111Z,5.70
2022-11-19T12:24:50.499Z,6.12
2022-11-19T12:25:52.934Z,7.49
2022-11-19T12:26:55.429Z,6.73
2022-11-19T12:27:57.921Z,6.80
2022-11-19T12:29:00.297Z,5.52
2022-11-19T12:30:02.953Z,5.23
2022-11-19T12:31:05.306Z,7.89
2022-11-19T12:32:07.667Z,7.57
2022-11-19T12:33:10.250Z,8.48
2022-11-19T12:34:12.708Z,5.13
2022-11-19T12:35:15.058Z,6.42
2022-11-19T12:36:18.050Z,7.73
2022-11-19T12:37:20.479Z,5.07
2022-11-19T12:38:22.859Z,6.09
2022-11-19T12:39:25.316Z,6.47
2022-11-19T12:40:31.118Z,8.42
2022-11-19T12:41:32.033Z,6.74
2022-11-19T12:42:34.557Z,9.85
2022-11-19T12:43:37.017Z,6.92
2022-11-19T12:44:39.413Z,6.69
2022-11-19T12:45:41.900Z,5.82
2022-11-19T12:46:44.351Z,7.17
2022-11-19T12:47:46.716Z,6.71
2022-11-19T12:48:49.210Z,6.56
2022-11-19T12:49:51.598Z,7.75
2022-11-19T12:50:54.161Z,9.88
2022-11-19T12:51:56.667Z,9.68
2022-11-19T12:52:59.144Z,8.11
2022-11-19T12:54:01.603Z,7.97
2022-11-19T12:55:03.954Z,7.47
2022-11-19T12:56:06.911Z,7.24
2022-11-19T12:57:09.259Z,7.87
2022-11-19T12:58:11.716Z,8.51
2022-11-19T12:59:14.163Z,7.55
2022-11-19T13:00:16.620Z,10.27
2022-11-19T13:01:19.129Z,9.64
2022-11-19T13:02:22.029Z,8.24
2022-11-19T13:03:24.393Z,9.81
2022-11-19T13:04:26.882Z,7.44
2022-11-19T13:05:29.233Z,11.67
2022-11-19T13:06:31.790Z,11.41
2022-11-19T13:07:34.337Z,14.05
2022-11-19T13:08:36.803Z,16.86
2022-11-19T13:09:39.295Z,18.03
2022-11-19T13:10:42.152Z,17.39
2022-11-19T13:11:44.609Z,21.46
2022-11-19T13:12:47.159Z,19.09
2022-11-19T13:13:49.523Z,16.65
2022-11-19T13:14:54.834Z,15.90
2022-11-19T13:15:56.282Z,21.88
2022-11-19T13:16:59.086Z,20.33
2022-11-19T13:18:01.439Z,20.80
2022-11-19T13:19:03.795Z,20.63
2022-11-19T13:20:06.525Z,16.87
2022-11-19T13:21:09.027Z,18.46
2022-11-19T13:22:11.527Z,23.33
2022-11-19T13:23:13.957Z,17.67
2022-11-19T13:24:16.407Z,21.53
2022-11-19T13:25:18.905Z,17.97
2022-11-19T13:26:21.563Z,29.36
2022-11-19T13:27:24.037Z,34.84
2022-11-19T13:28:26.401Z,33.71
2022-11-19T13:29:28.785Z,36.08
2022-11-19T13:30:31.286Z,51.67
2022-11-19T13:31:33.651Z,61.39
2022-11-19T13:32:36.135Z,56.12
2022-11-19T13:33:38.489Z,71.55
2022-11-19T13:34:40.893Z,97.09
2022-11-19T13:35:43.370Z,98.40
2022-11-19T13:36:45.727Z,130.17
2022-11-19T13:37:48.116Z,89.89
2022-11-19T13:38:50.469Z,159.29
2022-11-19T13:39:52.863Z,110.73
2022-11-19T13:40:55.604Z,114.95
2022-11-19T13:41:58.090Z,115.75
2022-11-19T13:43:17.560Z,146.26
2022-11-19T13:44:04.857Z,152.02
2022-11-19T13:45:07.241Z,147.38
2022-11-19T13:46:10.890Z,138.86
2022-11-19T13:47:13.292Z,151.93
2022-11-19T13:48:15.724Z,125.51
2022-11-19T13:49:18.484Z,145.27
2022-11-19T13:50:21.398Z,135.46
2022-11-19T13:51:24.343Z,136.79
2022-11-19T13:52:26.712Z,83.07
2022-11-19T13:53:29.157Z,130.09
2022-11-19T13:54:31.511Z,70.92
2022-11-19T13:55:33.894Z,40.39
2022-11-19T13:56:36.512Z,19.99
2022-11-19T13:57:38.983Z,14.91
2022-11-19T13:58:41.447Z,9.89
2022-11-19T13:59:44.220Z,15.82
2022-11-19T14:00:48.120Z,13.37
2022-11-19T14:01:50.733Z,6.49
2022-11-19T14:02:53.526Z,10.09
2022-11-19T14:03:56.004Z,10.55
2022-11-19T14:04:58.492Z,9.67